This is the latest recevied weather packets stored in our database for station/object DM4SB-4. If no packets are shown the sender has not sent any weather packets the latest 1 day(s).
| Time | Temp. | Humidity | Pressure | Rain* | Wind** | Luminosity | Snow |
|---|---|---|---|---|---|---|---|
| 1778089834 | 10° C | 96% | 1004.3 hPa | 3.81 mm | - | - | - |
| 1778089234 | 10° C | 96% | 1004.1 hPa | 5.33 mm | - | - | - |
| 1778087433 | 10° C | 95% | 1004 hPa | 5.08 mm | - | - | - |
| 1778086834 | 10° C | 95% | 1004.2 hPa | 4.06 mm | - | - | - |
| 1778086234 | 10° C | 94% | 1004.1 hPa | 2.79 mm | - | - | - |
| 1778085634 | 10.56° C | 94% | 1004.1 hPa | 1.02 mm | - | - | - |
| 1778082633 | 11.11° C | 92% | 1003.5 hPa | 4.83 mm | - | - | - |
| 1778082034 | 11.11° C | 93% | 1003.1 hPa | 4.83 mm | - | - | - |
| 1778081434 | 11.11° C | 92% | 1003 hPa | 4.57 mm | - | - | - |
| 1778080834 | 11.11° C | 92% | 1002.9 hPa | 3.81 mm | - | - | - |
| 1778077834 | 16.11° C | 70% | 1002 hPa | 0 mm | - | - | - |
| 1778077234 | 16.11° C | 73% | 1002.5 hPa | 0 mm | - | - | - |
| 1778076634 | 15.56° C | 77% | 1002.4 hPa | 0 mm | - | - | - |
| 1778073033 | 16.67° C | 69% | 1002.5 hPa | 0 mm | - | - | - |
| 1778072434 | 16.11° C | 71% | 1002.6 hPa | 0 mm | - | - | - |
| 1778071834 | 16.11° C | 69% | 1002.5 hPa | 0 mm | - | - | - |
| 1778067634 | 15.56° C | 76% | 1002.6 hPa | 0 mm | - | - | - |
| 1778064034 | 16.11° C | 68% | 1003.6 hPa | 0 mm | - | - | - |
| 1778063434 | 16.67° C | 67% | 1003.3 hPa | 0 mm | - | - | - |
| 1778062834 | 16.67° C | 70% | 1003.7 hPa | 0 mm | - | - | - |
| 1778061633 | 16.11° C | 71% | 1003.1 hPa | 0 mm | - | - | - |
| 1778061033 | 16.11° C | 74% | 1003.6 hPa | 0 mm | - | - | - |
| 1778060433 | 15.56° C | 73% | 1003.6 hPa | 0 mm | - | - | - |
| 1778059834 | 15° C | 79% | 1003.5 hPa | 0 mm | - | - | - |
| 1778059234 | 15° C | 79% | 1003.6 hPa | 0 mm | - | - | - |
* Rain latest hour (hover to see other rain measurements)
** Current wind speed in m/s (hover to see current wind gust speed)